sensor_id;sensor_type;location;lat;lon;timestamp;P1;durP1;ratioP1;P2;durP2;ratioP2
20076;SDS011;12348;42.710;23.378;2023-07-16T00:00:24;10.17;;;6.37;;
20076;SDS011;12348;42.710;23.378;2023-07-16T00:02:51;11.90;;;7.40;;
20076;SDS011;12348;42.710;23.378;2023-07-16T00:05:18;10.17;;;6.67;;
20076;SDS011;12348;42.710;23.378;2023-07-16T00:07:46;8.93;;;6.57;;
20076;SDS011;12348;42.710;23.378;2023-07-16T00:10:13;12.17;;;5.80;;
20076;SDS011;12348;42.710;23.378;2023-07-16T00:12:40;8.37;;;6.13;;
20076;SDS011;12348;42.710;23.378;2023-07-16T00:15:07;9.70;;;6.13;;
20076;SDS011;12348;42.710;23.378;2023-07-16T00:17:35;6.63;;;5.13;;
20076;SDS011;12348;42.710;23.378;2023-07-16T00:20:02;11.43;;;5.97;;
20076;SDS011;12348;42.710;23.378;2023-07-16T00:22:29;7.90;;;5.80;;
20076;SDS011;12348;42.710;23.378;2023-07-16T00:24:57;7.90;;;5.37;;
20076;SDS011;12348;42.710;23.378;2023-07-16T00:27:25;7.97;;;5.70;;
20076;SDS011;12348;42.710;23.378;2023-07-16T00:29:51;9.70;;;5.57;;
20076;SDS011;12348;42.710;23.378;2023-07-16T00:32:18;10.67;;;5.87;;
20076;SDS011;12348;42.710;23.378;2023-07-16T00:34:45;7.70;;;5.43;;
20076;SDS011;12348;42.710;23.378;2023-07-16T00:37:12;8.57;;;5.63;;
20076;SDS011;12348;42.710;23.378;2023-07-16T00:39:39;10.60;;;5.77;;
20076;SDS011;12348;42.710;23.378;2023-07-16T00:42:08;7.80;;;5.90;;
20076;SDS011;12348;42.710;23.378;2023-07-16T00:44:35;8.97;;;5.80;;
20076;SDS011;12348;42.710;23.378;2023-07-16T00:47:02;8.30;;;5.87;;
20076;SDS011;12348;42.710;23.378;2023-07-16T00:49:28;13.20;;;5.77;;
20076;SDS011;12348;42.710;23.378;2023-07-16T00:51:57;7.70;;;5.57;;
20076;SDS011;12348;42.710;23.378;2023-07-16T00:54:25;9.33;;;6.63;;
20076;SDS011;12348;42.710;23.378;2023-07-16T00:56:52;9.67;;;5.73;;
20076;SDS011;12348;42.710;23.378;2023-07-16T00:59:21;8.27;;;6.23;;
20076;SDS011;12348;42.710;23.378;2023-07-16T01:01:47;12.17;;;6.23;;
20076;SDS011;12348;42.710;23.378;2023-07-16T01:04:14;9.67;;;5.97;;
20076;SDS011;12348;42.710;23.378;2023-07-16T01:06:43;7.33;;;5.30;;
20076;SDS011;12348;42.710;23.378;2023-07-16T01:09:15;11.23;;;5.93;;
20076;SDS011;12348;42.710;23.378;2023-07-16T01:11:43;8.80;;;5.90;;
20076;SDS011;12348;42.710;23.378;2023-07-16T01:14:10;10.80;;;5.60;;
20076;SDS011;12348;42.710;23.378;2023-07-16T01:16:40;9.73;;;5.57;;
20076;SDS011;12348;42.710;23.378;2023-07-16T01:19:08;11.77;;;5.37;;
20076;SDS011;12348;42.710;23.378;2023-07-16T01:21:35;11.90;;;5.30;;
20076;SDS011;12348;42.710;23.378;2023-07-16T01:24:15;7.00;;;5.30;;
20076;SDS011;12348;42.710;23.378;2023-07-16T01:27:03;8.50;;;5.43;;
20076;SDS011;12348;42.710;23.378;2023-07-16T01:29:43;6.97;;;4.83;;
20076;SDS011;12348;42.710;23.378;2023-07-16T01:32:12;13.00;;;5.50;;
20076;SDS011;12348;42.710;23.378;2023-07-16T01:34:41;9.17;;;5.23;;
20076;SDS011;12348;42.710;23.378;2023-07-16T01:37:09;7.13;;;5.53;;
20076;SDS011;12348;42.710;23.378;2023-07-16T01:39:36;11.47;;;4.67;;
20076;SDS011;12348;42.710;23.378;2023-07-16T01:42:04;8.63;;;4.90;;
20076;SDS011;12348;42.710;23.378;2023-07-16T01:44:31;8.70;;;5.07;;
20076;SDS011;12348;42.710;23.378;2023-07-16T01:47:03;12.43;;;4.97;;
20076;SDS011;12348;42.710;23.378;2023-07-16T01:49:34;9.70;;;5.33;;
20076;SDS011;12348;42.710;23.378;2023-07-16T01:52:02;12.03;;;5.20;;
20076;SDS011;12348;42.710;23.378;2023-07-16T01:54:30;8.33;;;4.73;;
20076;SDS011;12348;42.710;23.378;2023-07-16T01:56:57;7.97;;;4.70;;
20076;SDS011;12348;42.710;23.378;2023-07-16T01:59:24;11.87;;;5.40;;
20076;SDS011;12348;42.710;23.378;2023-07-16T02:01:51;8.93;;;4.77;;
20076;SDS011;12348;42.710;23.378;2023-07-16T02:04:20;8.33;;;4.90;;
20076;SDS011;12348;42.710;23.378;2023-07-16T02:06:47;8.73;;;5.67;;
20076;SDS011;12348;42.710;23.378;2023-07-16T02:09:14;8.30;;;5.27;;
20076;SDS011;12348;42.710;23.378;2023-07-16T02:11:40;11.33;;;4.90;;
20076;SDS011;12348;42.710;23.378;2023-07-16T02:14:07;8.63;;;4.63;;
20076;SDS011;12348;42.710;23.378;2023-07-16T02:16:34;6.67;;;5.00;;
20076;SDS011;12348;42.710;23.378;2023-07-16T02:19:01;7.80;;;4.63;;
20076;SDS011;12348;42.710;23.378;2023-07-16T02:21:29;7.60;;;4.60;;
20076;SDS011;12348;42.710;23.378;2023-07-16T02:23:57;8.77;;;4.83;;
20076;SDS011;12348;42.710;23.378;2023-07-16T02:26:24;10.00;;;5.40;;
20076;SDS011;12348;42.710;23.378;2023-07-16T02:28:50;10.07;;;5.03;;
20076;SDS011;12348;42.710;23.378;2023-07-16T02:31:17;5.40;;;4.43;;
20076;SDS011;12348;42.710;23.378;2023-07-16T02:33:44;7.77;;;5.13;;
20076;SDS011;12348;42.710;23.378;2023-07-16T02:36:11;9.73;;;5.47;;
20076;SDS011;12348;42.710;23.378;2023-07-16T02:38:39;6.80;;;4.90;;
20076;SDS011;12348;42.710;23.378;2023-07-16T02:41:05;8.20;;;6.00;;
20076;SDS011;12348;42.710;23.378;2023-07-16T02:43:32;7.00;;;5.00;;
20076;SDS011;12348;42.710;23.378;2023-07-16T02:45:59;6.60;;;4.90;;
20076;SDS011;12348;42.710;23.378;2023-07-16T02:48:26;10.57;;;6.20;;
20076;SDS011;12348;42.710;23.378;2023-07-16T02:50:52;12.27;;;6.33;;
20076;SDS011;12348;42.710;23.378;2023-07-16T02:53:19;7.70;;;5.50;;
20076;SDS011;12348;42.710;23.378;2023-07-16T02:55:47;9.87;;;6.30;;
20076;SDS011;12348;42.710;23.378;2023-07-16T02:58:14;6.73;;;5.73;;
20076;SDS011;12348;42.710;23.378;2023-07-16T03:00:41;8.30;;;6.00;;
20076;SDS011;12348;42.710;23.378;2023-07-16T03:03:07;11.00;;;6.03;;
20076;SDS011;12348;42.710;23.378;2023-07-16T03:05:34;9.73;;;5.70;;
20076;SDS011;12348;42.710;23.378;2023-07-16T03:08:01;7.23;;;5.20;;
20076;SDS011;12348;42.710;23.378;2023-07-16T03:10:27;11.10;;;5.87;;
20076;SDS011;12348;42.710;23.378;2023-07-16T03:12:56;6.60;;;5.10;;
20076;SDS011;12348;42.710;23.378;2023-07-16T03:15:22;10.07;;;5.50;;
20076;SDS011;12348;42.710;23.378;2023-07-16T03:17:49;7.87;;;5.67;;
20076;SDS011;12348;42.710;23.378;2023-07-16T03:20:16;8.87;;;5.97;;
20076;SDS011;12348;42.710;23.378;2023-07-16T03:22:42;11.40;;;5.90;;
20076;SDS011;12348;42.710;23.378;2023-07-16T03:25:09;8.67;;;6.30;;
20076;SDS011;12348;42.710;23.378;2023-07-16T03:27:36;9.27;;;6.47;;
20076;SDS011;12348;42.710;23.378;2023-07-16T03:30:06;9.77;;;5.67;;
20076;SDS011;12348;42.710;23.378;2023-07-16T03:32:33;7.87;;;5.50;;
20076;SDS011;12348;42.710;23.378;2023-07-16T03:35:00;12.97;;;6.40;;
20076;SDS011;12348;42.710;23.378;2023-07-16T03:37:26;11.07;;;5.67;;
20076;SDS011;12348;42.710;23.378;2023-07-16T03:39:53;6.87;;;5.43;;
20076;SDS011;12348;42.710;23.378;2023-07-16T03:42:20;6.17;;;5.30;;
20076;SDS011;12348;42.710;23.378;2023-07-16T03:44:47;10.83;;;5.50;;
20076;SDS011;12348;42.710;23.378;2023-07-16T03:47:15;6.03;;;5.13;;
20076;SDS011;12348;42.710;23.378;2023-07-16T03:49:42;8.10;;;5.60;;
20076;SDS011;12348;42.710;23.378;2023-07-16T03:52:08;10.10;;;5.57;;
20076;SDS011;12348;42.710;23.378;2023-07-16T03:54:35;9.77;;;5.17;;
20076;SDS011;12348;42.710;23.378;2023-07-16T03:57:02;7.57;;;5.17;;
20076;SDS011;12348;42.710;23.378;2023-07-16T03:59:29;6.60;;;4.80;;
20076;SDS011;12348;42.710;23.378;2023-07-16T04:01:56;7.40;;;5.03;;
20076;SDS011;12348;42.710;23.378;2023-07-16T04:04:27;11.60;;;5.07;;
20076;SDS011;12348;42.710;23.378;2023-07-16T04:06:54;6.70;;;4.87;;
20076;SDS011;12348;42.710;23.378;2023-07-16T04:09:21;8.47;;;5.27;;
20076;SDS011;12348;42.710;23.378;2023-07-16T04:11:49;8.63;;;5.17;;
20076;SDS011;12348;42.710;23.378;2023-07-16T04:14:16;6.70;;;4.60;;
20076;SDS011;12348;42.710;23.378;2023-07-16T04:16:43;7.17;;;5.00;;
20076;SDS011;12348;42.710;23.378;2023-07-16T04:19:09;7.83;;;4.73;;
20076;SDS011;12348;42.710;23.378;2023-07-16T04:21:37;8.73;;;4.90;;
20076;SDS011;12348;42.710;23.378;2023-07-16T04:24:04;7.27;;;4.77;;
20076;SDS011;12348;42.710;23.378;2023-07-16T04:26:32;10.37;;;4.47;;
20076;SDS011;12348;42.710;23.378;2023-07-16T04:28:59;6.97;;;5.13;;
20076;SDS011;12348;42.710;23.378;2023-07-16T04:31:25;7.97;;;4.43;;
20076;SDS011;12348;42.710;23.378;2023-07-16T04:33:52;7.17;;;4.87;;
20076;SDS011;12348;42.710;23.378;2023-07-16T04:36:19;7.03;;;4.33;;
20076;SDS011;12348;42.710;23.378;2023-07-16T04:38:47;4.60;;;4.20;;
20076;SDS011;12348;42.710;23.378;2023-07-16T04:41:14;9.00;;;4.03;;
20076;SDS011;12348;42.710;23.378;2023-07-16T04:43:42;5.70;;;4.47;;
20076;SDS011;12348;42.710;23.378;2023-07-16T04:46:09;5.33;;;4.10;;
20076;SDS011;12348;42.710;23.378;2023-07-16T04:48:36;11.13;;;5.33;;
20076;SDS011;12348;42.710;23.378;2023-07-16T04:51:03;9.77;;;5.87;;
20076;SDS011;12348;42.710;23.378;2023-07-16T04:53:31;7.80;;;5.43;;
20076;SDS011;12348;42.710;23.378;2023-07-16T04:55:59;6.63;;;4.70;;
20076;SDS011;12348;42.710;23.378;2023-07-16T04:58:26;8.47;;;4.27;;
20076;SDS011;12348;42.710;23.378;2023-07-16T05:00:52;5.93;;;4.10;;
20076;SDS011;12348;42.710;23.378;2023-07-16T05:03:19;5.27;;;4.60;;
20076;SDS011;12348;42.710;23.378;2023-07-16T05:05:46;6.63;;;4.57;;
20076;SDS011;12348;42.710;23.378;2023-07-16T05:08:12;9.23;;;4.70;;
20076;SDS011;12348;42.710;23.378;2023-07-16T05:10:39;7.87;;;5.77;;
20076;SDS011;12348;42.710;23.378;2023-07-16T05:13:07;12.13;;;6.83;;
20076;SDS011;12348;42.710;23.378;2023-07-16T05:15:34;6.63;;;4.37;;
20076;SDS011;12348;42.710;23.378;2023-07-16T05:18:01;6.77;;;4.40;;
20076;SDS011;12348;42.710;23.378;2023-07-16T05:20:27;7.87;;;4.80;;
20076;SDS011;12348;42.710;23.378;2023-07-16T05:22:54;7.63;;;4.17;;
20076;SDS011;12348;42.710;23.378;2023-07-16T05:25:21;9.47;;;7.33;;
20076;SDS011;12348;42.710;23.378;2023-07-16T05:27:47;6.23;;;4.63;;
20076;SDS011;12348;42.710;23.378;2023-07-16T05:30:16;6.63;;;4.40;;
20076;SDS011;12348;42.710;23.378;2023-07-16T05:32:42;5.87;;;3.83;;
20076;SDS011;12348;42.710;23.378;2023-07-16T05:35:09;6.80;;;3.63;;
20076;SDS011;12348;42.710;23.378;2023-07-16T05:37:36;8.00;;;3.87;;
20076;SDS011;12348;42.710;23.378;2023-07-16T05:40:03;5.43;;;3.87;;
20076;SDS011;12348;42.710;23.378;2023-07-16T05:42:33;5.33;;;4.20;;
20076;SDS011;12348;42.710;23.378;2023-07-16T05:45:00;5.97;;;3.90;;
20076;SDS011;12348;42.710;23.378;2023-07-16T05:47:28;4.10;;;3.30;;
20076;SDS011;12348;42.710;23.378;2023-07-16T05:49:55;7.57;;;3.70;;
20076;SDS011;12348;42.710;23.378;2023-07-16T05:52:22;5.37;;;3.50;;
20076;SDS011;12348;42.710;23.378;2023-07-16T05:54:48;6.10;;;4.50;;
20076;SDS011;12348;42.710;23.378;2023-07-16T05:57:15;6.33;;;4.03;;
20076;SDS011;12348;42.710;23.378;2023-07-16T05:59:42;4.50;;;3.93;;
20076;SDS011;12348;42.710;23.378;2023-07-16T06:02:08;4.83;;;3.60;;
20076;SDS011;12348;42.710;23.378;2023-07-16T06:04:36;5.13;;;3.50;;
20076;SDS011;12348;42.710;23.378;2023-07-16T06:07:03;6.30;;;3.93;;
20076;SDS011;12348;42.710;23.378;2023-07-16T06:09:31;5.67;;;3.60;;
20076;SDS011;12348;42.710;23.378;2023-07-16T06:11:57;6.03;;;4.00;;
20076;SDS011;12348;42.710;23.378;2023-07-16T06:14:24;5.17;;;4.00;;
20076;SDS011;12348;42.710;23.378;2023-07-16T06:16:51;5.67;;;3.37;;
20076;SDS011;12348;42.710;23.378;2023-07-16T06:19:18;8.73;;;4.23;;
20076;SDS011;12348;42.710;23.378;2023-07-16T06:21:46;6.83;;;3.53;;
20076;SDS011;12348;42.710;23.378;2023-07-16T06:24:13;5.67;;;3.20;;
20076;SDS011;12348;42.710;23.378;2023-07-16T06:26:39;4.50;;;3.53;;
20076;SDS011;12348;42.710;23.378;2023-07-16T06:29:06;4.70;;;4.00;;
20076;SDS011;12348;42.710;23.378;2023-07-16T06:31:33;5.73;;;4.07;;
20076;SDS011;12348;42.710;23.378;2023-07-16T06:34:00;6.43;;;4.20;;
20076;SDS011;12348;42.710;23.378;2023-07-16T06:36:27;6.83;;;3.90;;
20076;SDS011;12348;42.710;23.378;2023-07-16T06:38:55;6.17;;;3.80;;
20076;SDS011;12348;42.710;23.378;2023-07-16T06:41:22;4.40;;;3.33;;
20076;SDS011;12348;42.710;23.378;2023-07-16T06:43:49;7.70;;;4.00;;
20076;SDS011;12348;42.710;23.378;2023-07-16T06:46:15;8.73;;;4.17;;
20076;SDS011;12348;42.710;23.378;2023-07-16T06:48:42;4.40;;;3.50;;
20076;SDS011;12348;42.710;23.378;2023-07-16T06:51:09;6.03;;;3.47;;
20076;SDS011;12348;42.710;23.378;2023-07-16T06:53:35;4.70;;;3.20;;
20076;SDS011;12348;42.710;23.378;2023-07-16T06:56:04;4.33;;;3.57;;
20076;SDS011;12348;42.710;23.378;2023-07-16T06:58:31;5.45;;;3.17;;
20076;SDS011;12348;42.710;23.378;2023-07-16T07:00:58;5.00;;;3.07;;
20076;SDS011;12348;42.710;23.378;2023-07-16T07:03:25;7.18;;;3.42;;
20076;SDS011;12348;42.710;23.378;2023-07-16T07:05:52;4.57;;;3.30;;
20076;SDS011;12348;42.710;23.378;2023-07-16T07:08:18;4.28;;;3.28;;
20076;SDS011;12348;42.710;23.378;2023-07-16T07:10:46;8.90;;;3.60;;
20076;SDS011;12348;42.710;23.378;2023-07-16T07:13:14;4.53;;;3.00;;
20076;SDS011;12348;42.710;23.378;2023-07-16T07:15:41;9.80;;;4.10;;
20076;SDS011;12348;42.710;23.378;2023-07-16T07:18:08;5.93;;;3.60;;
20076;SDS011;12348;42.710;23.378;2023-07-16T07:20:35;7.20;;;3.95;;
20076;SDS011;12348;42.710;23.378;2023-07-16T07:23:02;5.43;;;3.63;;
20076;SDS011;12348;42.710;23.378;2023-07-16T07:25:30;5.35;;;3.45;;
20076;SDS011;12348;42.710;23.378;2023-07-16T07:27:57;4.55;;;3.08;;
20076;SDS011;12348;42.710;23.378;2023-07-16T07:30:25;5.53;;;3.90;;
20076;SDS011;12348;42.710;23.378;2023-07-16T07:32:52;4.47;;;3.45;;
20076;SDS011;12348;42.710;23.378;2023-07-16T07:35:19;4.30;;;3.03;;
20076;SDS011;12348;42.710;23.378;2023-07-16T07:37:46;4.93;;;3.45;;
20076;SDS011;12348;42.710;23.378;2023-07-16T07:40:12;6.60;;;3.83;;
20076;SDS011;12348;42.710;23.378;2023-07-16T07:42:39;3.95;;;3.65;;
20076;SDS011;12348;42.710;23.378;2023-07-16T07:45:06;5.07;;;3.20;;
20076;SDS011;12348;42.710;23.378;2023-07-16T07:47:35;8.45;;;3.95;;
20076;SDS011;12348;42.710;23.378;2023-07-16T07:50:02;6.50;;;4.40;;
20076;SDS011;12348;42.710;23.378;2023-07-16T07:52:29;5.82;;;3.72;;
20076;SDS011;12348;42.710;23.378;2023-07-16T07:54:56;10.80;;;3.97;;
20076;SDS011;12348;42.710;23.378;2023-07-16T07:57:23;6.35;;;4.40;;
20076;SDS011;12348;42.710;23.378;2023-07-16T07:59:49;5.03;;;3.85;;
20076;SDS011;12348;42.710;23.378;2023-07-16T08:02:21;4.07;;;3.60;;
20076;SDS011;12348;42.710;23.378;2023-07-16T08:04:50;6.22;;;3.95;;
20076;SDS011;12348;42.710;23.378;2023-07-16T08:07:17;6.82;;;4.10;;
20076;SDS011;12348;42.710;23.378;2023-07-16T08:09:44;7.43;;;4.68;;
20076;SDS011;12348;42.710;23.378;2023-07-16T08:12:11;8.90;;;3.95;;
20076;SDS011;12348;42.710;23.378;2023-07-16T08:14:38;5.28;;;4.45;;
20076;SDS011;12348;42.710;23.378;2023-07-16T08:17:05;5.07;;;4.25;;
20076;SDS011;12348;42.710;23.378;2023-07-16T08:19:32;5.30;;;3.92;;
20076;SDS011;12348;42.710;23.378;2023-07-16T08:22:00;7.03;;;4.78;;
20076;SDS011;12348;42.710;23.378;2023-07-16T08:24:27;9.65;;;4.85;;
20076;SDS011;12348;42.710;23.378;2023-07-16T08:26:54;5.97;;;4.60;;
20076;SDS011;12348;42.710;23.378;2023-07-16T08:29:20;7.80;;;3.60;;
20076;SDS011;12348;42.710;23.378;2023-07-16T08:31:47;5.35;;;3.70;;
20076;SDS011;12348;42.710;23.378;2023-07-16T08:34:14;7.85;;;4.70;;
20076;SDS011;12348;42.710;23.378;2023-07-16T08:36:41;6.50;;;5.07;;
20076;SDS011;12348;42.710;23.378;2023-07-16T08:39:10;7.35;;;4.60;;
20076;SDS011;12348;42.710;23.378;2023-07-16T08:41:37;6.75;;;3.83;;
20076;SDS011;12348;42.710;23.378;2023-07-16T08:44:04;5.72;;;4.68;;
20076;SDS011;12348;42.710;23.378;2023-07-16T08:46:32;7.47;;;4.95;;
20076;SDS011;12348;42.710;23.378;2023-07-16T08:48:59;7.03;;;4.78;;
20076;SDS011;12348;42.710;23.378;2023-07-16T08:51:27;7.22;;;4.38;;
20076;SDS011;12348;42.710;23.378;2023-07-16T08:53:55;5.78;;;4.68;;
20076;SDS011;12348;42.710;23.378;2023-07-16T08:56:23;6.40;;;4.78;;
20076;SDS011;12348;42.710;23.378;2023-07-16T08:58:50;9.00;;;5.20;;
20076;SDS011;12348;42.710;23.378;2023-07-16T09:01:19;6.45;;;4.00;;
20076;SDS011;12348;42.710;23.378;2023-07-16T09:03:46;6.97;;;4.50;;
20076;SDS011;12348;42.710;23.378;2023-07-16T09:06:12;11.25;;;4.97;;
20076;SDS011;12348;42.710;23.378;2023-07-16T09:08:39;10.25;;;5.15;;
20076;SDS011;12348;42.710;23.378;2023-07-16T09:11:10;6.80;;;5.20;;
20076;SDS011;12348;42.710;23.378;2023-07-16T09:13:43;8.32;;;6.10;;
20076;SDS011;12348;42.710;23.378;2023-07-16T09:16:10;6.90;;;5.22;;
20076;SDS011;12348;42.710;23.378;2023-07-16T09:18:39;10.15;;;5.80;;
20076;SDS011;12348;42.710;23.378;2023-07-16T09:21:07;9.73;;;6.18;;
20076;SDS011;12348;42.710;23.378;2023-07-16T09:23:34;12.23;;;4.90;;
20076;SDS011;12348;42.710;23.378;2023-07-16T09:26:01;8.35;;;5.35;;
20076;SDS011;12348;42.710;23.378;2023-07-16T09:28:30;14.18;;;6.40;;
20076;SDS011;12348;42.710;23.378;2023-07-16T09:31:04;6.72;;;5.03;;
20076;SDS011;12348;42.710;23.378;2023-07-16T09:33:31;7.97;;;6.10;;
20076;SDS011;12348;42.710;23.378;2023-07-16T09:35:58;6.13;;;5.38;;
20076;SDS011;12348;42.710;23.378;2023-07-16T09:38:25;7.68;;;5.20;;
20076;SDS011;12348;42.710;23.378;2023-07-16T09:40:55;7.90;;;5.57;;
20076;SDS011;12348;42.710;23.378;2023-07-16T09:43:22;11.30;;;6.88;;
20076;SDS011;12348;42.710;23.378;2023-07-16T09:45:49;13.50;;;7.03;;
20076;SDS011;12348;42.710;23.378;2023-07-16T09:48:19;10.35;;;6.80;;
20076;SDS011;12348;42.710;23.378;2023-07-16T09:50:49;13.00;;;6.78;;
20076;SDS011;12348;42.710;23.378;2023-07-16T09:53:18;11.05;;;6.68;;
20076;SDS011;12348;42.710;23.378;2023-07-16T09:55:45;10.02;;;6.10;;
20076;SDS011;12348;42.710;23.378;2023-07-16T09:58:14;11.45;;;6.82;;
20076;SDS011;12348;42.710;23.378;2023-07-16T10:00:44;10.80;;;6.82;;
20076;SDS011;12348;42.710;23.378;2023-07-16T10:03:12;6.93;;;5.82;;
20076;SDS011;12348;42.710;23.378;2023-07-16T10:05:42;7.60;;;5.93;;
20076;SDS011;12348;42.710;23.378;2023-07-16T10:08:15;8.65;;;5.78;;
20076;SDS011;12348;42.710;23.378;2023-07-16T10:10:43;7.65;;;5.38;;
20076;SDS011;12348;42.710;23.378;2023-07-16T10:13:13;8.43;;;6.45;;
20076;SDS011;12348;42.710;23.378;2023-07-16T10:15:50;8.77;;;6.05;;
20076;SDS011;12348;42.710;23.378;2023-07-16T10:18:22;6.55;;;5.90;;
20076;SDS011;12348;42.710;23.378;2023-07-16T10:20:51;7.43;;;5.78;;
20076;SDS011;12348;42.710;23.378;2023-07-16T10:23:18;8.73;;;6.70;;
20076;SDS011;12348;42.710;23.378;2023-07-16T10:25:57;9.55;;;5.97;;
20076;SDS011;12348;42.710;23.378;2023-07-16T10:28:24;10.68;;;6.18;;
20076;SDS011;12348;42.710;23.378;2023-07-16T10:30:51;8.20;;;6.35;;
20076;SDS011;12348;42.710;23.378;2023-07-16T10:33:18;8.18;;;6.22;;
20076;SDS011;12348;42.710;23.378;2023-07-16T10:35:45;7.95;;;5.82;;
20076;SDS011;12348;42.710;23.378;2023-07-16T10:38:13;10.73;;;6.07;;
20076;SDS011;12348;42.710;23.378;2023-07-16T10:40:40;9.80;;;6.72;;
20076;SDS011;12348;42.710;23.378;2023-07-16T10:43:08;8.48;;;6.57;;
20076;SDS011;12348;42.710;23.378;2023-07-16T10:45:35;11.32;;;6.72;;
20076;SDS011;12348;42.710;23.378;2023-07-16T10:48:03;11.85;;;7.35;;
20076;SDS011;12348;42.710;23.378;2023-07-16T10:50:31;12.95;;;6.53;;
20076;SDS011;12348;42.710;23.378;2023-07-16T10:52:58;11.85;;;7.18;;
20076;SDS011;12348;42.710;23.378;2023-07-16T10:55:27;13.60;;;7.10;;
20076;SDS011;12348;42.710;23.378;2023-07-16T10:57:55;16.13;;;7.18;;
20076;SDS011;12348;42.710;23.378;2023-07-16T11:00:22;11.68;;;6.93;;
20076;SDS011;12348;42.710;23.378;2023-07-16T11:02:49;14.07;;;7.55;;
20076;SDS011;12348;42.710;23.378;2023-07-16T11:05:17;10.88;;;7.30;;
20076;SDS011;12348;42.710;23.378;2023-07-16T11:07:44;8.20;;;7.32;;
20076;SDS011;12348;42.710;23.378;2023-07-16T11:10:14;17.15;;;8.65;;
20076;SDS011;12348;42.710;23.378;2023-07-16T11:12:43;11.40;;;7.55;;
20076;SDS011;12348;42.710;23.378;2023-07-16T11:15:10;12.20;;;8.15;;
20076;SDS011;12348;42.710;23.378;2023-07-16T11:17:37;12.63;;;7.25;;
20076;SDS011;12348;42.710;23.378;2023-07-16T11:20:06;13.85;;;7.63;;
20076;SDS011;12348;42.710;23.378;2023-07-16T11:22:36;11.95;;;7.50;;
20076;SDS011;12348;42.710;23.378;2023-07-16T11:25:10;13.93;;;9.05;;
20076;SDS011;12348;42.710;23.378;2023-07-16T11:27:39;15.65;;;8.02;;
20076;SDS011;12348;42.710;23.378;2023-07-16T11:30:09;12.50;;;7.65;;
20076;SDS011;12348;42.710;23.378;2023-07-16T11:32:36;9.02;;;7.22;;
20076;SDS011;12348;42.710;23.378;2023-07-16T11:35:08;10.60;;;7.22;;
20076;SDS011;12348;42.710;23.378;2023-07-16T11:37:37;10.77;;;6.75;;
20076;SDS011;12348;42.710;23.378;2023-07-16T11:40:05;10.85;;;7.15;;
20076;SDS011;12348;42.710;23.378;2023-07-16T11:42:34;10.88;;;7.95;;
20076;SDS011;12348;42.710;23.378;2023-07-16T11:45:02;11.07;;;8.07;;
20076;SDS011;12348;42.710;23.378;2023-07-16T11:47:30;17.63;;;7.53;;
20076;SDS011;12348;42.710;23.378;2023-07-16T11:49:58;11.68;;;7.35;;
20076;SDS011;12348;42.710;23.378;2023-07-16T11:52:25;11.50;;;7.15;;
20076;SDS011;12348;42.710;23.378;2023-07-16T11:54:53;11.35;;;7.50;;
20076;SDS011;12348;42.710;23.378;2023-07-16T11:57:21;10.47;;;7.80;;
20076;SDS011;12348;42.710;23.378;2023-07-16T11:59:47;18.35;;;7.88;;
20076;SDS011;12348;42.710;23.378;2023-07-16T12:02:14;11.45;;;7.28;;
20076;SDS011;12348;42.710;23.378;2023-07-16T12:04:43;14.27;;;7.55;;
20076;SDS011;12348;42.710;23.378;2023-07-16T12:07:10;9.15;;;6.97;;
20076;SDS011;12348;42.710;23.378;2023-07-16T12:09:37;13.85;;;8.63;;
20076;SDS011;12348;42.710;23.378;2023-07-16T12:12:04;13.13;;;7.03;;
20076;SDS011;12348;42.710;23.378;2023-07-16T12:14:32;9.85;;;6.95;;
20076;SDS011;12348;42.710;23.378;2023-07-16T12:16:59;13.65;;;8.10;;
20076;SDS011;12348;42.710;23.378;2023-07-16T12:19:25;14.63;;;7.18;;
20076;SDS011;12348;42.710;23.378;2023-07-16T12:21:53;14.77;;;6.75;;
20076;SDS011;12348;42.710;23.378;2023-07-16T12:24:22;9.85;;;7.53;;
20076;SDS011;12348;42.710;23.378;2023-07-16T12:26:49;12.88;;;7.70;;
20076;SDS011;12348;42.710;23.378;2023-07-16T12:29:16;11.32;;;7.75;;
20076;SDS011;12348;42.710;23.378;2023-07-16T12:31:42;10.32;;;7.10;;
20076;SDS011;12348;42.710;23.378;2023-07-16T12:34:09;10.48;;;6.95;;
20076;SDS011;12348;42.710;23.378;2023-07-16T12:36:36;8.27;;;6.97;;
20076;SDS011;12348;42.710;23.378;2023-07-16T12:39:04;11.40;;;7.05;;
20076;SDS011;12348;42.710;23.378;2023-07-16T12:41:31;13.95;;;8.25;;
20076;SDS011;12348;42.710;23.378;2023-07-16T12:43:57;11.55;;;7.65;;
20076;SDS011;12348;42.710;23.378;2023-07-16T12:46:24;9.05;;;6.78;;
20076;SDS011;12348;42.710;23.378;2023-07-16T12:48:51;11.13;;;6.55;;
20076;SDS011;12348;42.710;23.378;2023-07-16T12:51:17;9.02;;;5.75;;
20076;SDS011;12348;42.710;23.378;2023-07-16T12:53:44;11.82;;;6.80;;
20076;SDS011;12348;42.710;23.378;2023-07-16T12:56:14;11.98;;;6.10;;
20076;SDS011;12348;42.710;23.378;2023-07-16T12:58:40;11.68;;;6.57;;
20076;SDS011;12348;42.710;23.378;2023-07-16T13:01:07;10.55;;;6.75;;
20076;SDS011;12348;42.710;23.378;2023-07-16T13:03:34;7.45;;;5.80;;
20076;SDS011;12348;42.710;23.378;2023-07-16T13:06:00;8.93;;;6.30;;
20076;SDS011;12348;42.710;23.378;2023-07-16T13:08:28;10.68;;;6.22;;
20076;SDS011;12348;42.710;23.378;2023-07-16T13:10:55;9.15;;;6.25;;
20076;SDS011;12348;42.710;23.378;2023-07-16T13:13:24;10.00;;;6.10;;
20076;SDS011;12348;42.710;23.378;2023-07-16T13:15:51;13.07;;;6.60;;
20076;SDS011;12348;42.710;23.378;2023-07-16T13:18:17;9.25;;;6.05;;
20076;SDS011;12348;42.710;23.378;2023-07-16T13:20:45;9.65;;;6.35;;
20076;SDS011;12348;42.710;23.378;2023-07-16T13:23:11;10.88;;;7.25;;
20076;SDS011;12348;42.710;23.378;2023-07-16T13:25:38;11.00;;;7.10;;
20076;SDS011;12348;42.710;23.378;2023-07-16T13:28:05;8.65;;;6.45;;
20076;SDS011;12348;42.710;23.378;2023-07-16T13:30:33;12.65;;;7.10;;
20076;SDS011;12348;42.710;23.378;2023-07-16T13:33:00;11.10;;;6.30;;
20076;SDS011;12348;42.710;23.378;2023-07-16T13:35:27;9.52;;;6.95;;
20076;SDS011;12348;42.710;23.378;2023-07-16T13:37:54;7.85;;;5.95;;
20076;SDS011;12348;42.710;23.378;2023-07-16T13:40:21;9.05;;;5.63;;
20076;SDS011;12348;42.710;23.378;2023-07-16T13:42:48;10.68;;;6.07;;
20076;SDS011;12348;42.710;23.378;2023-07-16T13:45:15;7.97;;;6.05;;
20076;SDS011;12348;42.710;23.378;2023-07-16T13:47:43;8.20;;;5.70;;
20076;SDS011;12348;42.710;23.378;2023-07-16T13:50:11;7.93;;;5.97;;
20076;SDS011;12348;42.710;23.378;2023-07-16T13:52:38;11.15;;;6.55;;
20076;SDS011;12348;42.710;23.378;2023-07-16T13:55:05;9.48;;;6.18;;
20076;SDS011;12348;42.710;23.378;2023-07-16T13:57:32;6.78;;;5.97;;
20076;SDS011;12348;42.710;23.378;2023-07-16T13:59:59;11.30;;;6.47;;
20076;SDS011;12348;42.710;23.378;2023-07-16T14:02:26;11.85;;;6.40;;
20076;SDS011;12348;42.710;23.378;2023-07-16T14:04:54;9.63;;;7.03;;
20076;SDS011;12348;42.710;23.378;2023-07-16T14:07:21;9.10;;;6.20;;
20076;SDS011;12348;42.710;23.378;2023-07-16T14:09:48;13.25;;;7.38;;
20076;SDS011;12348;42.710;23.378;2023-07-16T14:12:15;12.48;;;6.53;;
20076;SDS011;12348;42.710;23.378;2023-07-16T14:14:42;9.70;;;7.22;;
20076;SDS011;12348;42.710;23.378;2023-07-16T14:17:09;8.85;;;6.25;;
20076;SDS011;12348;42.710;23.378;2023-07-16T14:19:35;8.85;;;6.47;;
20076;SDS011;12348;42.710;23.378;2023-07-16T14:22:04;11.50;;;6.97;;
20076;SDS011;12348;42.710;23.378;2023-07-16T14:24:31;11.85;;;7.03;;
20076;SDS011;12348;42.710;23.378;2023-07-16T14:26:58;11.65;;;7.13;;
20076;SDS011;12348;42.710;23.378;2023-07-16T14:29:26;10.10;;;6.75;;
20076;SDS011;12348;42.710;23.378;2023-07-16T14:31:54;9.38;;;6.63;;